createdAt,value
2024-04-18T00:00:13.475Z,93790.00
2024-04-18T00:01:13.278Z,93791.00
2024-04-18T00:02:13.190Z,93790.00
2024-04-18T00:03:13.263Z,93791.00
2024-04-18T00:04:13.292Z,93789.00
2024-04-18T00:05:13.250Z,93788.00
2024-04-18T00:06:13.243Z,93786.00
2024-04-18T00:07:13.204Z,93789.00
2024-04-18T00:08:13.244Z,93788.00
2024-04-18T00:09:13.232Z,93786.00
2024-04-18T00:10:13.239Z,93786.00
2024-04-18T00:11:13.245Z,93783.00
2024-04-18T00:12:16.099Z,93784.00
2024-04-18T00:13:13.215Z,93782.00
2024-04-18T00:14:13.228Z,93781.00
2024-04-18T00:15:13.303Z,93783.00
2024-04-18T00:16:13.298Z,93783.00
2024-04-18T00:17:13.254Z,93782.00
2024-04-18T00:18:34.323Z,93781.00
2024-04-18T00:19:13.224Z,93784.00
2024-04-18T00:20:13.257Z,93783.00
2024-04-18T00:21:49.079Z,93784.00
2024-04-18T00:22:13.229Z,93785.00
2024-04-18T00:23:13.232Z,93782.00
2024-04-18T00:24:13.264Z,93782.00
2024-04-18T00:25:13.261Z,93782.00
2024-04-18T00:26:13.233Z,93781.00
2024-04-18T00:27:13.253Z,93782.00
2024-04-18T00:28:13.227Z,93779.00
2024-04-18T00:29:13.235Z,93782.00
2024-04-18T00:30:13.278Z,93779.00
2024-04-18T00:31:13.243Z,93781.00
2024-04-18T00:32:13.257Z,93780.00
2024-04-18T00:33:13.297Z,93781.00
2024-04-18T00:34:13.237Z,93780.00
2024-04-18T00:35:13.260Z,93780.00
2024-04-18T00:36:13.307Z,93780.00
2024-04-18T00:37:13.244Z,93782.00
2024-04-18T00:38:13.315Z,93782.00
2024-04-18T00:39:13.247Z,93781.00
2024-04-18T00:40:16.059Z,93781.00
2024-04-18T00:41:13.251Z,93782.00
2024-04-18T00:42:13.259Z,93781.00
2024-04-18T00:43:34.262Z,93779.00
2024-04-18T00:44:13.264Z,93777.00
2024-04-18T00:45:13.296Z,93778.00
2024-04-18T00:46:24.062Z,93778.00
2024-04-18T00:47:13.277Z,93778.00
2024-04-18T00:48:13.357Z,93778.00
2024-04-18T00:49:13.322Z,93778.00
2024-04-18T00:50:13.279Z,93778.00
2024-04-18T00:51:13.313Z,93779.00
2024-04-18T00:52:13.252Z,93779.00
2024-04-18T00:53:13.249Z,93781.00
2024-04-18T00:54:13.260Z,93782.00
2024-04-18T00:55:13.263Z,93782.00
2024-04-18T00:56:15.924Z,93782.00
2024-04-18T00:57:13.263Z,93781.00
2024-04-18T00:58:13.305Z,93783.00
2024-04-18T00:59:13.258Z,93782.00
2024-04-18T01:00:13.300Z,93781.00
2024-04-18T01:01:13.352Z,93780.00
2024-04-18T01:02:14.062Z,93779.00
2024-04-18T01:03:13.381Z,93782.00
2024-04-18T01:04:13.390Z,93781.00
2024-04-18T01:05:16.106Z,93779.00
2024-04-18T01:06:13.310Z,93778.00
2024-04-18T01:07:13.270Z,93780.00
2024-04-18T01:08:20.061Z,93778.00
2024-04-18T01:09:13.301Z,93779.00
2024-04-18T01:10:13.271Z,93780.00
2024-04-18T01:11:39.624Z,93779.00
2024-04-18T01:12:13.326Z,93780.00
2024-04-18T01:13:13.284Z,93778.00
2024-04-18T01:14:37.078Z,93779.00
2024-04-18T01:15:13.353Z,93780.00
2024-04-18T01:16:13.364Z,93782.00
2024-04-18T01:17:16.182Z,93781.00
2024-04-18T01:18:14.481Z,93781.00
2024-04-18T01:19:13.326Z,93782.00
2024-04-18T01:20:13.322Z,93780.00
2024-04-18T01:21:13.346Z,93780.00
2024-04-18T01:22:13.327Z,93778.00
2024-04-18T01:23:13.337Z,93779.00
2024-04-18T01:24:13.398Z,93778.00
2024-04-18T01:25:13.333Z,93777.00
2024-04-18T01:26:13.346Z,93777.00
2024-04-18T01:27:13.352Z,93778.00
2024-04-18T01:28:13.348Z,93778.00
2024-04-18T01:29:13.323Z,93777.00
2024-04-18T01:30:13.341Z,93778.00
2024-04-18T01:31:13.326Z,93778.00
2024-04-18T01:32:13.332Z,93779.00
2024-04-18T01:33:14.180Z,93783.00
2024-04-18T01:34:13.387Z,93781.00
2024-04-18T01:35:13.332Z,93783.00
2024-04-18T01:36:27.599Z,93786.00
2024-04-18T01:37:13.340Z,93786.00
2024-04-18T01:38:13.360Z,93789.00
2024-04-18T01:39:34.420Z,93786.00
2024-04-18T01:40:13.361Z,93787.00
2024-04-18T01:41:13.355Z,93789.00
2024-04-18T01:42:13.374Z,93786.00
2024-04-18T01:43:13.351Z,93786.00
2024-04-18T01:44:13.370Z,93783.00
2024-04-18T01:45:13.371Z,93784.00
2024-04-18T01:46:13.363Z,93784.00
2024-04-18T01:47:13.393Z,93781.00
2024-04-18T01:48:13.640Z,93779.00
2024-04-18T01:49:13.423Z,93779.00
2024-04-18T01:50:13.362Z,93779.00
2024-04-18T01:51:13.397Z,93777.00
2024-04-18T01:52:13.372Z,93775.00
2024-04-18T01:53:13.365Z,93775.00
2024-04-18T01:54:13.388Z,93774.00
2024-04-18T01:55:13.371Z,93774.00
2024-04-18T01:56:13.358Z,93772.00
2024-04-18T01:57:13.365Z,93773.00
2024-04-18T01:58:20.087Z,93772.00
2024-04-18T01:59:13.365Z,93773.00
2024-04-18T02:00:13.481Z,93774.00
2024-04-18T02:01:31.623Z,93774.00
2024-04-18T02:02:13.367Z,93773.00
2024-04-18T02:03:13.559Z,93773.00
2024-04-18T02:04:20.227Z,93774.00
2024-04-18T02:05:13.389Z,93776.00
2024-04-18T02:06:13.400Z,93775.00
2024-04-18T02:07:41.087Z,93777.00
2024-04-18T02:08:13.375Z,93780.00
2024-04-18T02:09:13.382Z,93781.00
2024-04-18T02:10:13.373Z,93781.00
2024-04-18T02:11:13.466Z,93781.00
2024-04-18T02:12:13.414Z,93782.00
2024-04-18T02:13:13.384Z,93779.00
2024-04-18T02:14:13.389Z,93781.00
2024-04-18T02:15:13.411Z,93776.00
2024-04-18T02:16:13.388Z,93779.00
2024-04-18T02:17:13.401Z,93783.00
2024-04-18T02:18:13.427Z,93783.00
2024-04-18T02:19:13.391Z,93786.00
2024-04-18T02:20:13.439Z,93787.00
2024-04-18T02:21:13.421Z,93789.00
2024-04-18T02:22:13.427Z,93787.00
2024-04-18T02:23:13.398Z,93787.00
2024-04-18T02:24:13.435Z,93788.00
2024-04-18T02:25:13.399Z,93786.00
2024-04-18T02:26:14.099Z,93786.00
2024-04-18T02:27:13.429Z,93785.00
2024-04-18T02:28:13.400Z,93788.00
2024-04-18T02:29:34.434Z,93788.00
2024-04-18T02:30:13.427Z,93789.00
2024-04-18T02:31:13.421Z,93789.00
2024-04-18T02:32:35.236Z,93789.00
2024-04-18T02:33:13.589Z,93790.00
2024-04-18T02:34:13.415Z,93789.00
2024-04-18T02:35:13.419Z,93792.00
2024-04-18T02:36:13.450Z,93791.00
2024-04-18T02:37:13.418Z,93790.00
2024-04-18T02:38:13.417Z,93790.00
2024-04-18T02:39:13.455Z,93789.00
2024-04-18T02:40:13.422Z,93787.00
2024-04-18T02:41:13.422Z,93786.00
2024-04-18T02:42:13.441Z,93786.00
2024-04-18T02:43:13.425Z,93788.00
2024-04-18T02:44:13.430Z,93789.00
2024-04-18T02:45:13.439Z,93789.00
2024-04-18T02:46:13.432Z,93792.00
2024-04-18T02:47:14.146Z,93793.00
2024-04-18T02:48:20.145Z,93793.00
2024-04-18T02:49:13.449Z,93793.00
2024-04-18T02:50:13.456Z,93795.00
2024-04-18T02:51:15.142Z,93796.00
2024-04-18T02:52:13.445Z,93799.00
2024-04-18T02:53:13.447Z,93798.00
2024-04-18T02:54:34.489Z,93798.00
2024-04-18T02:55:13.448Z,93797.00
2024-04-18T02:56:13.461Z,93797.00
2024-04-18T02:57:41.124Z,93799.00
2024-04-18T02:58:13.464Z,93798.00
2024-04-18T02:59:13.459Z,93799.00
2024-04-18T03:00:45.317Z,93798.00
2024-04-18T03:01:13.514Z,93799.00
2024-04-18T03:02:13.484Z,93799.00
2024-04-18T03:03:13.509Z,93800.00
2024-04-18T03:04:13.514Z,93798.00
2024-04-18T03:05:13.469Z,93799.00
2024-04-18T03:06:13.489Z,93802.00
2024-04-18T03:07:13.474Z,93801.00
2024-04-18T03:08:13.485Z,93801.00
2024-04-18T03:09:13.593Z,93803.00
2024-04-18T03:10:13.506Z,93803.00
2024-04-18T03:11:13.499Z,93802.00
2024-04-18T03:12:13.477Z,93803.00
2024-04-18T03:13:13.482Z,93802.00
2024-04-18T03:14:13.495Z,93801.00
2024-04-18T03:15:13.521Z,93801.00
2024-04-18T03:16:13.489Z,93801.00
2024-04-18T03:17:13.517Z,93801.00
2024-04-18T03:18:13.628Z,93804.00
2024-04-18T03:19:13.563Z,93803.00
2024-04-18T03:20:13.515Z,93803.00
2024-04-18T03:21:13.524Z,93805.00
2024-04-18T03:22:28.127Z,93805.00
2024-04-18T03:23:13.746Z,93806.00
2024-04-18T03:24:13.781Z,93805.00
2024-04-18T03:25:34.779Z,93807.00
2024-04-18T03:26:13.768Z,93804.00
2024-04-18T03:27:13.798Z,93807.00
2024-04-18T03:28:13.760Z,93809.00
2024-04-18T03:29:13.768Z,93805.00
2024-04-18T03:30:13.798Z,93808.00
2024-04-18T03:31:13.778Z,93809.00
2024-04-18T03:32:13.810Z,93807.00
2024-04-18T03:33:13.830Z,93808.00
2024-04-18T03:34:13.773Z,93809.00
2024-04-18T03:35:13.776Z,93808.00
2024-04-18T03:36:13.813Z,93808.00
2024-04-18T03:37:13.781Z,93808.00
2024-04-18T03:38:13.783Z,93807.00
2024-04-18T03:39:13.854Z,93808.00
2024-04-18T03:40:13.785Z,93810.00
2024-04-18T03:41:19.146Z,93809.00
2024-04-18T03:42:13.813Z,93807.00
2024-04-18T03:43:13.792Z,93809.00
2024-04-18T03:44:13.789Z,93809.00
2024-04-18T03:45:13.815Z,93808.00
2024-04-18T03:46:13.800Z,93807.00
2024-04-18T03:47:32.202Z,93809.00
2024-04-18T03:48:13.923Z,93807.00
2024-04-18T03:49:13.848Z,93807.00
2024-04-18T03:50:41.640Z,93808.00
2024-04-18T03:51:13.890Z,93809.00
2024-04-18T03:52:13.821Z,93811.00
2024-04-18T03:53:49.653Z,93814.00
2024-04-18T03:54:13.847Z,93811.00
2024-04-18T03:55:13.864Z,93812.00
2024-04-18T03:56:13.853Z,93815.00
2024-04-18T03:57:13.866Z,93815.00
2024-04-18T03:58:13.833Z,93816.00
2024-04-18T03:59:13.832Z,93818.00
2024-04-18T04:00:14.053Z,93818.00
2024-04-18T04:01:13.990Z,93819.00
2024-04-18T04:02:13.863Z,93820.00
2024-04-18T04:03:13.868Z,93819.00
2024-04-18T04:04:13.921Z,93821.00
2024-04-18T04:05:13.858Z,93821.00
2024-04-18T04:06:13.880Z,93821.00
2024-04-18T04:07:13.843Z,93819.00
2024-04-18T04:08:13.842Z,93819.00
2024-04-18T04:09:13.875Z,93819.00
2024-04-18T04:10:13.845Z,93820.00
2024-04-18T04:11:13.877Z,93820.00
2024-04-18T04:12:13.925Z,93822.00
2024-04-18T04:13:13.852Z,93821.00
2024-04-18T04:14:13.854Z,93823.00
2024-04-18T04:15:34.882Z,93826.00
2024-04-18T04:16:13.891Z,93823.00
2024-04-18T04:17:13.875Z,93826.00
2024-04-18T04:18:34.970Z,93827.00
2024-04-18T04:19:13.948Z,93827.00
2024-04-18T04:20:13.862Z,93827.00
2024-04-18T04:21:13.882Z,93828.00
2024-04-18T04:22:13.885Z,93828.00
2024-04-18T04:23:13.875Z,93829.00
2024-04-18T04:24:13.893Z,93828.00
2024-04-18T04:25:13.868Z,93828.00
2024-04-18T04:26:13.879Z,93828.00
2024-04-18T04:27:13.902Z,93830.00
2024-04-18T04:28:13.900Z,93831.00
2024-04-18T04:29:13.872Z,93833.00
2024-04-18T04:30:13.880Z,93836.00
2024-04-18T04:31:13.873Z,93834.00
2024-04-18T04:32:13.922Z,93834.00
2024-04-18T04:33:13.881Z,93836.00
2024-04-18T04:34:21.156Z,93837.00
2024-04-18T04:35:21.156Z,93839.00
2024-04-18T04:36:23.279Z,93841.00
2024-04-18T04:37:21.275Z,93842.00
2024-04-18T04:38:21.263Z,93844.00
2024-04-18T04:39:21.281Z,93845.00
2024-04-18T04:40:24.264Z,93845.00
2024-04-18T04:41:21.266Z,93846.00
2024-04-18T04:42:21.314Z,93849.00
2024-04-18T04:43:21.285Z,93848.00
2024-04-18T04:44:21.298Z,93857.00
2024-04-18T04:45:21.280Z,93851.00
2024-04-18T04:46:39.765Z,93850.00
2024-04-18T04:47:21.270Z,93854.00
2024-04-18T04:48:21.437Z,93851.00
2024-04-18T04:49:42.351Z,93852.00
2024-04-18T04:50:21.272Z,93857.00
2024-04-18T04:51:21.282Z,93863.00
2024-04-18T04:52:21.295Z,93865.00
2024-04-18T04:53:21.277Z,93866.00
2024-04-18T04:54:21.309Z,93866.00
2024-04-18T04:55:21.284Z,93868.00
2024-04-18T04:56:21.314Z,93868.00
2024-04-18T04:57:21.311Z,93869.00
2024-04-18T04:58:21.291Z,93869.00
2024-04-18T04:59:21.293Z,93872.00
2024-04-18T05:00:21.297Z,93873.00
2024-04-18T05:01:21.327Z,93877.00
2024-04-18T05:02:22.286Z,93877.00
2024-04-18T05:03:21.358Z,93877.00
2024-04-18T05:04:21.415Z,93879.00
2024-04-18T05:05:36.256Z,93883.00
2024-04-18T05:06:21.304Z,93884.00
2024-04-18T05:07:21.327Z,93883.00
2024-04-18T05:08:24.264Z,93886.00
2024-04-18T05:09:21.359Z,93888.00
2024-04-18T05:10:21.323Z,93889.00
2024-04-18T05:11:32.286Z,93889.00
2024-04-18T05:12:21.339Z,93891.00
2024-04-18T05:13:21.316Z,93894.00
2024-04-18T05:14:42.320Z,93893.00
2024-04-18T05:15:21.323Z,93894.00
2024-04-18T05:16:24.207Z,93892.00
2024-04-18T05:17:21.333Z,93896.00
2024-04-18T05:18:21.339Z,93893.00
2024-04-18T05:19:21.331Z,93899.00
2024-04-18T05:20:21.340Z,93898.00
2024-04-18T05:21:21.374Z,93898.00
2024-04-18T05:22:21.343Z,93898.00
2024-04-18T05:23:21.346Z,93904.00
2024-04-18T05:24:21.385Z,93902.00
2024-04-18T05:25:21.350Z,93902.00
2024-04-18T05:26:21.821Z,93904.00
2024-04-18T05:27:21.436Z,93911.00
2024-04-18T05:28:21.434Z,93910.00
2024-04-18T05:29:21.357Z,93907.00
2024-04-18T05:30:21.371Z,93910.00
2024-04-18T05:31:21.815Z,93907.00
2024-04-18T05:32:21.390Z,93915.00
2024-04-18T05:33:21.436Z,93913.00
2024-04-18T05:34:21.384Z,93909.00
2024-04-18T05:35:21.367Z,93914.00
2024-04-18T05:36:42.404Z,93911.00
2024-04-18T05:37:23.160Z,93910.00
2024-04-18T05:38:21.379Z,93910.00
2024-04-18T05:39:49.373Z,93912.00
2024-04-18T05:40:21.407Z,93913.00
2024-04-18T05:41:21.821Z,93917.00
2024-04-18T05:42:49.388Z,93918.00
2024-04-18T05:43:21.397Z,93920.00
2024-04-18T05:44:21.383Z,93919.00
2024-04-18T05:45:21.425Z,93919.00
2024-04-18T05:46:21.386Z,93921.00
2024-04-18T05:47:21.476Z,93922.00
2024-04-18T05:48:21.450Z,93925.00
2024-04-18T05:49:21.397Z,93932.00
2024-04-18T05:50:21.398Z,93937.00
2024-04-18T05:51:21.429Z,93932.00
2024-04-18T05:52:21.392Z,93935.00
2024-04-18T05:53:21.410Z,93937.00
2024-04-18T05:54:21.427Z,93935.00
2024-04-18T05:55:21.411Z,93927.00
2024-04-18T05:56:21.431Z,93924.00
2024-04-18T05:57:21.474Z,93926.00
2024-04-18T05:58:21.404Z,93928.00
2024-04-18T05:59:21.448Z,93937.00
2024-04-18T06:00:21.452Z,93941.00
2024-04-18T06:01:26.854Z,93942.00
2024-04-18T06:02:21.563Z,93947.00
2024-04-18T06:03:21.584Z,93951.00
2024-04-18T06:04:36.354Z,93946.00
2024-04-18T06:05:21.583Z,93939.00
2024-04-18T06:06:21.627Z,93938.00
2024-04-18T06:07:46.231Z,93942.00
2024-04-18T06:08:21.587Z,93947.00
2024-04-18T06:09:21.662Z,93950.00
2024-04-18T06:10:21.640Z,93952.00
2024-04-18T06:11:21.613Z,93953.00
2024-04-18T06:12:21.636Z,93954.00
2024-04-18T06:13:21.637Z,93954.00
2024-04-18T06:14:21.587Z,93955.00
2024-04-18T06:15:21.635Z,93946.00
2024-04-18T06:16:21.634Z,93943.00
2024-04-18T06:17:21.597Z,93945.00
2024-04-18T06:18:21.628Z,93947.00
2024-04-18T06:19:21.605Z,93944.00
2024-04-18T06:20:21.604Z,93941.00
2024-04-18T06:21:21.635Z,93946.00
2024-04-18T06:22:21.625Z,93951.00
2024-04-18T06:23:28.296Z,93943.00
2024-04-18T06:24:21.709Z,93940.00
2024-04-18T06:25:21.615Z,93938.00
2024-04-18T06:26:21.621Z,93939.00
2024-04-18T06:27:21.623Z,93938.00
2024-04-18T06:28:21.608Z,93941.00
2024-04-18T06:29:37.812Z,93938.00
2024-04-18T06:30:21.862Z,93940.00
2024-04-18T06:31:22.306Z,93938.00
2024-04-18T06:32:46.342Z,93940.00
2024-04-18T06:33:22.002Z,93941.00
2024-04-18T06:34:21.920Z,93942.00
2024-04-18T06:35:56.199Z,93947.00
2024-04-18T06:36:22.332Z,93948.00
2024-04-18T06:37:21.920Z,93955.00
2024-04-18T06:38:21.929Z,93955.00
2024-04-18T06:39:21.951Z,93958.00
2024-04-18T06:40:21.920Z,93958.00
2024-04-18T06:41:21.929Z,93960.00
2024-04-18T06:42:21.931Z,93960.00
2024-04-18T06:43:24.883Z,93961.00
2024-04-18T06:44:21.931Z,93963.00
2024-04-18T06:45:21.955Z,93965.00
2024-04-18T06:46:22.061Z,93956.00
2024-04-18T06:47:21.970Z,93954.00
2024-04-18T06:48:22.018Z,93953.00
2024-04-18T06:49:21.944Z,93954.00
2024-04-18T06:50:25.301Z,93955.00
2024-04-18T06:51:21.951Z,93956.00
2024-04-18T06:52:21.946Z,93956.00
2024-04-18T06:53:21.944Z,93956.00
2024-04-18T06:54:22.003Z,93958.00
2024-04-18T06:55:21.954Z,93956.00
2024-04-18T06:56:23.245Z,93958.00
2024-04-18T06:57:28.829Z,93957.00
2024-04-18T06:58:21.964Z,93959.00
2024-04-18T06:59:21.964Z,93959.00
2024-04-18T07:00:43.080Z,93960.00
2024-04-18T07:01:22.090Z,93960.00
2024-04-18T07:02:21.966Z,93959.00
2024-04-18T07:03:22.076Z,93961.00
2024-04-18T07:04:22.048Z,93961.00
2024-04-18T07:05:21.980Z,93960.00
2024-04-18T07:06:22.002Z,93960.00
2024-04-18T07:07:21.975Z,93959.00
2024-04-18T07:08:21.974Z,93959.00
2024-04-18T07:09:22.007Z,93959.00
2024-04-18T07:10:21.972Z,93960.00
2024-04-18T07:11:22.045Z,93958.00
2024-04-18T07:12:21.992Z,93958.00
2024-04-18T07:13:21.988Z,93957.00
2024-04-18T07:14:21.972Z,93957.00
2024-04-18T07:15:22.003Z,93957.00
2024-04-18T07:16:22.031Z,93959.00
2024-04-18T07:17:21.980Z,93959.00
2024-04-18T07:18:22.094Z,93960.00
2024-04-18T07:19:38.340Z,93960.00
2024-04-18T07:20:21.988Z,93957.00
2024-04-18T07:21:22.021Z,93959.00
2024-04-18T07:22:40.330Z,93958.00
2024-04-18T07:23:22.003Z,93956.00
2024-04-18T07:24:22.019Z,93959.00
2024-04-18T07:25:29.398Z,93960.00
2024-04-18T07:26:21.993Z,93960.00
2024-04-18T07:27:22.022Z,93962.00
2024-04-18T07:28:43.008Z,93962.00
2024-04-18T07:29:22.004Z,93962.00
2024-04-18T07:30:22.036Z,93966.00
2024-04-18T07:31:22.020Z,93966.00
2024-04-18T07:32:22.070Z,93966.00
2024-04-18T07:33:22.193Z,93969.00
2024-04-18T07:34:22.151Z,93970.00
2024-04-18T07:35:22.011Z,93971.00
2024-04-18T07:36:22.031Z,93972.00
2024-04-18T07:37:22.009Z,93973.00
2024-04-18T07:38:22.008Z,93971.00
2024-04-18T07:39:22.118Z,93974.00
2024-04-18T07:40:22.016Z,93973.00
2024-04-18T07:41:22.022Z,93970.00
2024-04-18T07:42:22.045Z,93973.00
2024-04-18T07:43:24.872Z,93970.00
2024-04-18T07:44:28.837Z,93969.00
2024-04-18T07:45:22.037Z,93972.00
2024-04-18T07:46:22.023Z,93972.00
2024-04-18T07:47:22.066Z,93971.00
2024-04-18T07:48:22.143Z,93974.00
2024-04-18T07:49:22.094Z,93974.00
2024-04-18T07:50:43.042Z,93974.00
2024-04-18T07:51:22.079Z,93974.00
2024-04-18T07:52:22.177Z,93974.00
2024-04-18T07:53:38.358Z,93975.00
2024-04-18T07:54:22.091Z,93975.00
2024-04-18T07:55:22.836Z,93976.00
2024-04-18T07:56:22.472Z,93976.00
2024-04-18T07:57:22.526Z,93977.00
2024-04-18T07:58:22.421Z,93976.00
2024-04-18T07:59:22.647Z,93973.00
2024-04-18T08:00:23.083Z,93974.00
2024-04-18T08:01:23.597Z,93974.00
2024-04-18T08:02:23.847Z,93974.00
2024-04-18T08:03:24.260Z,93976.00
2024-04-18T08:04:44.609Z,93976.00
2024-04-18T08:05:25.419Z,93970.00
2024-04-18T08:06:25.127Z,93972.00
2024-04-18T08:07:24.722Z,93973.00
2024-04-18T08:08:25.447Z,93974.00
2024-04-18T08:10:24.812Z,93978.00
2024-04-18T08:11:52.995Z,93977.00
2024-04-18T08:12:27.857Z,93978.00
2024-04-18T08:13:27.419Z,93979.00
2024-04-18T08:14:27.487Z,93976.00
2024-04-18T08:16:23.551Z,93980.00
2024-04-18T08:17:22.661Z,93978.00
2024-04-18T08:18:53.839Z,93977.00
2024-04-18T08:19:22.474Z,93978.00
2024-04-18T08:20:22.463Z,93979.00
2024-04-18T08:21:25.866Z,93981.00
2024-04-18T08:22:22.501Z,93983.00
2024-04-18T08:23:22.468Z,93981.00
2024-04-18T08:24:22.520Z,93983.00
2024-04-18T08:25:22.471Z,93983.00
2024-04-18T08:26:22.485Z,93983.00
2024-04-18T08:27:22.489Z,93986.00
2024-04-18T08:28:22.515Z,93986.00
2024-04-18T08:29:22.488Z,93986.00
2024-04-18T08:30:22.523Z,93986.00
2024-04-18T08:31:22.509Z,93989.00
2024-04-18T08:32:22.498Z,93991.00
2024-04-18T08:33:22.536Z,93993.00
2024-04-18T08:34:24.295Z,93993.00
2024-04-18T08:35:22.496Z,93997.00
2024-04-18T08:36:22.509Z,93995.00
2024-04-18T08:37:36.872Z,93995.00
2024-04-18T08:38:22.496Z,93998.00
2024-04-18T08:39:22.568Z,93998.00
2024-04-18T08:40:39.936Z,93998.00
2024-04-18T08:41:22.596Z,93997.00
2024-04-18T08:42:22.644Z,93998.00
2024-04-18T08:43:37.357Z,93995.00
2024-04-18T08:44:22.655Z,93995.00
2024-04-18T08:45:22.696Z,93999.00
2024-04-18T08:46:43.912Z,93999.00
2024-04-18T08:47:22.674Z,93998.00
2024-04-18T08:48:22.876Z,93999.00
2024-04-18T08:49:22.768Z,94000.00
2024-04-18T08:50:22.679Z,93997.00
2024-04-18T08:51:22.678Z,93998.00
2024-04-18T08:52:22.653Z,93996.00
2024-04-18T08:53:22.688Z,93999.00
2024-04-18T08:54:22.690Z,93998.00
2024-04-18T08:55:22.664Z,94000.00
2024-04-18T08:56:22.662Z,93999.00
2024-04-18T08:57:22.765Z,94002.00
2024-04-18T08:58:22.660Z,94002.00
2024-04-18T08:59:22.671Z,94001.00
2024-04-18T09:00:22.694Z,94001.00
2024-04-18T09:01:22.668Z,94001.00
2024-04-18T09:02:22.706Z,94002.00
2024-04-18T09:03:22.681Z,94003.00
2024-04-18T09:04:22.790Z,94006.00
2024-04-18T09:05:22.739Z,94003.00
2024-04-18T09:06:22.727Z,94003.00
2024-04-18T09:07:22.669Z,94001.00
2024-04-18T09:08:37.365Z,93999.00
2024-04-18T09:09:22.739Z,94001.00
2024-04-18T09:10:22.674Z,93999.00
2024-04-18T09:11:43.690Z,94000.00
2024-04-18T09:12:22.747Z,94001.00
2024-04-18T09:13:24.262Z,94002.00
2024-04-18T09:14:38.883Z,94002.00
2024-04-18T09:15:22.717Z,94000.00
2024-04-18T09:16:22.695Z,93999.00
2024-04-18T09:17:22.778Z,93996.00
2024-04-18T09:18:22.761Z,93997.00
2024-04-18T09:19:22.773Z,94000.00
2024-04-18T09:20:22.706Z,94001.00
2024-04-18T09:21:22.719Z,94000.00
2024-04-18T09:22:22.723Z,93998.00
2024-04-18T09:23:22.710Z,94000.00
2024-04-18T09:24:22.755Z,94001.00
2024-04-18T09:25:22.724Z,93998.00
2024-04-18T09:26:22.710Z,94000.00
2024-04-18T09:27:23.467Z,94004.00
2024-04-18T09:28:22.721Z,94004.00
2024-04-18T09:29:22.715Z,94005.00
2024-04-18T09:30:29.443Z,94006.00
2024-04-18T09:31:30.385Z,94007.00
2024-04-18T09:32:23.897Z,94006.00
2024-04-18T09:33:23.458Z,94006.00
2024-04-18T09:34:22.815Z,94004.00
2024-04-18T09:35:22.746Z,94006.00
2024-04-18T09:36:43.866Z,94008.00
2024-04-18T09:37:22.744Z,94009.00
2024-04-18T09:38:22.734Z,94005.00
2024-04-18T09:39:43.864Z,94001.00
2024-04-18T09:40:22.765Z,94005.00
2024-04-18T09:41:22.742Z,94004.00
2024-04-18T09:42:22.796Z,94005.00
2024-04-18T09:43:22.733Z,94004.00
2024-04-18T09:44:23.847Z,94008.00
2024-04-18T09:45:22.937Z,94006.00
2024-04-18T09:46:22.757Z,94002.00
2024-04-18T09:47:22.752Z,94007.00
2024-04-18T09:48:22.875Z,94004.00
2024-04-18T09:49:22.852Z,94007.00
2024-04-18T09:50:22.772Z,94006.00
2024-04-18T09:51:22.784Z,94006.00
2024-04-18T09:52:22.757Z,94005.00
2024-04-18T09:53:22.754Z,94006.00
2024-04-18T09:54:22.790Z,94004.00
2024-04-18T09:55:25.228Z,94005.00
2024-04-18T09:56:22.868Z,94007.00
2024-04-18T09:57:22.851Z,94007.00
2024-04-18T09:58:22.842Z,94010.00
2024-04-18T09:59:22.846Z,94012.00
2024-04-18T10:00:22.861Z,94014.00
2024-04-18T10:01:37.516Z,94013.00
2024-04-18T10:02:22.912Z,94015.00
2024-04-18T10:03:22.910Z,94011.00
2024-04-18T10:04:43.852Z,94010.00
2024-04-18T10:05:22.873Z,94014.00
2024-04-18T10:06:22.926Z,94012.00
2024-04-18T10:07:51.407Z,94012.00
2024-04-18T10:08:22.863Z,94015.00
2024-04-18T10:09:22.909Z,94008.00
2024-04-18T10:10:22.870Z,94015.00
2024-04-18T10:11:22.938Z,94011.00
2024-04-18T10:12:22.922Z,94012.00
2024-04-18T10:13:23.062Z,94018.00
2024-04-18T10:14:22.885Z,94014.00
2024-04-18T10:15:22.951Z,94016.00
2024-04-18T10:16:22.883Z,94012.00
2024-04-18T10:17:22.923Z,94013.00
2024-04-18T10:18:22.974Z,94013.00
2024-04-18T10:19:23.025Z,94014.00
2024-04-18T10:20:22.901Z,94012.00
2024-04-18T10:21:32.031Z,94011.00
2024-04-18T10:22:29.823Z,94012.00
2024-04-18T10:23:38.462Z,94011.00
2024-04-18T10:24:22.902Z,94011.00
2024-04-18T10:25:22.905Z,94013.00
2024-04-18T10:26:29.411Z,94010.00
2024-04-18T10:27:22.964Z,94011.00
2024-04-18T10:28:22.912Z,94014.00
2024-04-18T10:29:22.906Z,94013.00
2024-04-18T10:30:22.961Z,94014.00
2024-04-18T10:31:22.905Z,94014.00
2024-04-18T10:32:36.994Z,94016.00
2024-04-18T10:33:23.025Z,94017.00
2024-04-18T10:34:22.924Z,94019.00
2024-04-18T10:35:22.914Z,94019.00
2024-04-18T10:36:22.956Z,94017.00
2024-04-18T10:37:22.924Z,94020.00
2024-04-18T10:38:22.992Z,94019.00
2024-04-18T10:39:22.959Z,94019.00
2024-04-18T10:40:22.926Z,94017.00
2024-04-18T10:41:22.915Z,94019.00
2024-04-18T10:42:23.021Z,94023.00
2024-04-18T10:43:22.942Z,94020.00
2024-04-18T10:44:22.936Z,94020.00
2024-04-18T10:45:22.961Z,94021.00
2024-04-18T10:46:22.988Z,94020.00
2024-04-18T10:47:23.195Z,94021.00
2024-04-18T10:48:23.144Z,94025.00
2024-04-18T10:49:23.140Z,94024.00
2024-04-18T10:50:23.092Z,94024.00
2024-04-18T10:51:23.206Z,94023.00
2024-04-18T10:52:23.153Z,94025.00
2024-04-18T10:53:23.193Z,94024.00
2024-04-18T10:54:38.054Z,94027.00
2024-04-18T10:55:23.232Z,94024.00
2024-04-18T10:56:23.218Z,94026.00
2024-04-18T10:57:41.483Z,94024.00
2024-04-18T10:58:23.234Z,94021.00
2024-04-18T10:59:23.219Z,94023.00
2024-04-18T11:00:44.280Z,94018.00
2024-04-18T11:01:23.289Z,94017.00
2024-04-18T11:02:23.302Z,94017.00
2024-04-18T11:03:23.297Z,94015.00
2024-04-18T11:04:23.365Z,94013.00
2024-04-18T11:05:23.248Z,94014.00
2024-04-18T11:06:23.279Z,94012.00
2024-04-18T11:07:23.888Z,94011.00
2024-04-18T11:08:23.297Z,94011.00
2024-04-18T11:09:23.307Z,94009.00
2024-04-18T11:10:23.252Z,94008.00
2024-04-18T11:11:23.283Z,94011.00
2024-04-18T11:12:23.331Z,94014.00
2024-04-18T11:13:23.249Z,94014.00
2024-04-18T11:14:23.255Z,94017.00
2024-04-18T11:15:23.487Z,94018.00
2024-04-18T11:16:37.936Z,94014.00
2024-04-18T11:17:23.344Z,94012.00
2024-04-18T11:18:23.470Z,94018.00
2024-04-18T11:19:25.971Z,94020.00
2024-04-18T11:20:23.265Z,94018.00
2024-04-18T11:21:23.357Z,94024.00
2024-04-18T11:22:33.949Z,94026.00
2024-04-18T11:23:29.211Z,94026.00
2024-04-18T11:24:24.282Z,94027.00
2024-04-18T11:25:37.937Z,94027.00
2024-04-18T11:26:23.276Z,94027.00
2024-04-18T11:27:23.300Z,94028.00
2024-04-18T11:28:23.267Z,94028.00
2024-04-18T11:29:23.268Z,94027.00
2024-04-18T11:30:23.283Z,94027.00
2024-04-18T11:31:23.346Z,94028.00
2024-04-18T11:32:23.418Z,94026.00
2024-04-18T11:33:23.343Z,94026.00
2024-04-18T11:34:23.276Z,94024.00
2024-04-18T11:35:23.278Z,94025.00
2024-04-18T11:36:23.305Z,94023.00
2024-04-18T11:37:23.298Z,94025.00
2024-04-18T11:38:23.293Z,94021.00
2024-04-18T11:39:23.318Z,94024.00
2024-04-18T11:40:23.294Z,94024.00
2024-04-18T11:41:23.291Z,94025.00
2024-04-18T11:42:23.321Z,94030.00
2024-04-18T11:43:23.293Z,94029.00
2024-04-18T11:44:23.295Z,94031.00
2024-04-18T11:45:23.368Z,94029.00
2024-04-18T11:46:23.320Z,94032.00